sensor_id;sensor_type;location;lat;lon;timestamp;temperature;humidity
11772;DHT22;12556;55.748;13.194;2023-04-24T00:02:01;6.80;99.90
11772;DHT22;12556;55.748;13.194;2023-04-24T00:04:29;6.80;99.90
11772;DHT22;12556;55.748;13.194;2023-04-24T00:06:57;6.80;99.90
11772;DHT22;12556;55.748;13.194;2023-04-24T00:09:27;6.80;99.90
11772;DHT22;12556;55.748;13.194;2023-04-24T00:11:54;6.80;99.90
11772;DHT22;12556;55.748;13.194;2023-04-24T00:14:21;6.70;99.90
11772;DHT22;12556;55.748;13.194;2023-04-24T00:16:48;6.70;99.90
11772;DHT22;12556;55.748;13.194;2023-04-24T00:19:15;6.70;99.90
11772;DHT22;12556;55.748;13.194;2023-04-24T00:21:42;6.70;99.90
11772;DHT22;12556;55.748;13.194;2023-04-24T00:24:09;6.70;99.90
11772;DHT22;12556;55.748;13.194;2023-04-24T00:26:37;6.80;99.90
11772;DHT22;12556;55.748;13.194;2023-04-24T00:29:04;6.80;99.90
11772;DHT22;12556;55.748;13.194;2023-04-24T00:31:31;6.60;99.90
11772;DHT22;12556;55.748;13.194;2023-04-24T00:34:00;6.60;99.90
11772;DHT22;12556;55.748;13.194;2023-04-24T00:36:27;6.60;99.90
11772;DHT22;12556;55.748;13.194;2023-04-24T00:38:54;6.50;99.90
11772;DHT22;12556;55.748;13.194;2023-04-24T00:41:21;6.50;99.90
11772;DHT22;12556;55.748;13.194;2023-04-24T00:43:50;6.50;99.90
11772;DHT22;12556;55.748;13.194;2023-04-24T00:46:17;6.50;99.90
11772;DHT22;12556;55.748;13.194;2023-04-24T00:48:44;6.50;99.90
11772;DHT22;12556;55.748;13.194;2023-04-24T00:51:11;6.50;99.90
11772;DHT22;12556;55.748;13.194;2023-04-24T00:53:38;6.60;99.90
11772;DHT22;12556;55.748;13.194;2023-04-24T00:56:05;6.70;99.90
11772;DHT22;12556;55.748;13.194;2023-04-24T00:58:32;6.70;99.90
11772;DHT22;12556;55.748;13.194;2023-04-24T01:01:01;6.80;99.90
11772;DHT22;12556;55.748;13.194;2023-04-24T01:03:33;6.90;99.90
11772;DHT22;12556;55.748;13.194;2023-04-24T01:06:03;6.90;99.90
11772;DHT22;12556;55.748;13.194;2023-04-24T01:08:30;7.00;99.90
11772;DHT22;12556;55.748;13.194;2023-04-24T01:10:57;7.00;99.90
11772;DHT22;12556;55.748;13.194;2023-04-24T01:13:24;7.10;99.90
11772;DHT22;12556;55.748;13.194;2023-04-24T01:15:51;7.10;99.90
11772;DHT22;12556;55.748;13.194;2023-04-24T01:18:19;7.10;99.90
11772;DHT22;12556;55.748;13.194;2023-04-24T01:20:46;7.10;99.90
11772;DHT22;12556;55.748;13.194;2023-04-24T01:23:16;7.10;99.90
11772;DHT22;12556;55.748;13.194;2023-04-24T01:25:43;7.10;99.90
11772;DHT22;12556;55.748;13.194;2023-04-24T01:28:10;7.10;99.90
11772;DHT22;12556;55.748;13.194;2023-04-24T01:30:39;7.10;99.90
11772;DHT22;12556;55.748;13.194;2023-04-24T01:33:06;7.00;99.90
11772;DHT22;12556;55.748;13.194;2023-04-24T01:35:33;7.00;99.90
11772;DHT22;12556;55.748;13.194;2023-04-24T01:38:01;7.00;99.90
11772;DHT22;12556;55.748;13.194;2023-04-24T01:40:30;6.90;99.90
11772;DHT22;12556;55.748;13.194;2023-04-24T01:42:58;6.90;99.90
11772;DHT22;12556;55.748;13.194;2023-04-24T01:45:25;6.80;99.90
11772;DHT22;12556;55.748;13.194;2023-04-24T01:47:52;6.80;99.90
11772;DHT22;12556;55.748;13.194;2023-04-24T01:50:19;6.70;99.90
11772;DHT22;12556;55.748;13.194;2023-04-24T01:52:46;6.70;99.90
11772;DHT22;12556;55.748;13.194;2023-04-24T01:55:13;6.60;99.90
11772;DHT22;12556;55.748;13.194;2023-04-24T01:57:41;6.60;99.90
11772;DHT22;12556;55.748;13.194;2023-04-24T02:00:09;6.50;99.90
11772;DHT22;12556;55.748;13.194;2023-04-24T02:02:38;6.50;99.90
11772;DHT22;12556;55.748;13.194;2023-04-24T02:05:06;6.40;99.90
11772;DHT22;12556;55.748;13.194;2023-04-24T02:07:33;6.50;99.90
11772;DHT22;12556;55.748;13.194;2023-04-24T02:10:00;6.50;99.90
11772;DHT22;12556;55.748;13.194;2023-04-24T02:12:27;6.60;99.90
11772;DHT22;12556;55.748;13.194;2023-04-24T02:14:55;6.60;99.90
11772;DHT22;12556;55.748;13.194;2023-04-24T02:17:22;6.60;99.90
11772;DHT22;12556;55.748;13.194;2023-04-24T02:19:49;6.70;99.90
11772;DHT22;12556;55.748;13.194;2023-04-24T02:22:16;6.70;99.90
11772;DHT22;12556;55.748;13.194;2023-04-24T02:24:43;6.60;99.90
11772;DHT22;12556;55.748;13.194;2023-04-24T02:27:10;6.70;99.90
11772;DHT22;12556;55.748;13.194;2023-04-24T02:29:38;6.70;99.90
11772;DHT22;12556;55.748;13.194;2023-04-24T02:32:06;6.70;99.90
11772;DHT22;12556;55.748;13.194;2023-04-24T02:34:36;6.70;99.90
11772;DHT22;12556;55.748;13.194;2023-04-24T02:37:03;6.60;99.90
11772;DHT22;12556;55.748;13.194;2023-04-24T02:39:30;6.60;99.90
11772;DHT22;12556;55.748;13.194;2023-04-24T02:41:57;6.60;99.90
11772;DHT22;12556;55.748;13.194;2023-04-24T02:44:26;6.60;99.90
11772;DHT22;12556;55.748;13.194;2023-04-24T02:46:53;6.60;99.90
11772;DHT22;12556;55.748;13.194;2023-04-24T02:49:21;6.50;99.90
11772;DHT22;12556;55.748;13.194;2023-04-24T02:51:48;6.50;99.90
11772;DHT22;12556;55.748;13.194;2023-04-24T02:54:15;6.50;99.90
11772;DHT22;12556;55.748;13.194;2023-04-24T02:56:42;6.60;99.90
11772;DHT22;12556;55.748;13.194;2023-04-24T02:59:09;6.60;99.90
11772;DHT22;12556;55.748;13.194;2023-04-24T03:01:36;6.60;99.90
11772;DHT22;12556;55.748;13.194;2023-04-24T03:04:03;6.60;99.90
11772;DHT22;12556;55.748;13.194;2023-04-24T03:06:32;6.60;99.90
11772;DHT22;12556;55.748;13.194;2023-04-24T03:09:01;6.70;99.90
11772;DHT22;12556;55.748;13.194;2023-04-24T03:11:29;6.60;99.90
11772;DHT22;12556;55.748;13.194;2023-04-24T03:13:56;6.50;99.90
11772;DHT22;12556;55.748;13.194;2023-04-24T03:16:23;6.20;99.90
11772;DHT22;12556;55.748;13.194;2023-04-24T03:18:50;6.50;99.90
11772;DHT22;12556;55.748;13.194;2023-04-24T03:21:17;6.50;99.90
11772;DHT22;12556;55.748;13.194;2023-04-24T03:23:45;6.40;99.90
11772;DHT22;12556;55.748;13.194;2023-04-24T03:26:12;6.40;99.90
11772;DHT22;12556;55.748;13.194;2023-04-24T03:28:39;6.40;99.90
11772;DHT22;12556;55.748;13.194;2023-04-24T03:31:06;6.40;99.90
11772;DHT22;12556;55.748;13.194;2023-04-24T03:33:33;6.50;99.90
11772;DHT22;12556;55.748;13.194;2023-04-24T03:36:01;6.50;99.90
11772;DHT22;12556;55.748;13.194;2023-04-24T03:38:28;6.50;99.90
11772;DHT22;12556;55.748;13.194;2023-04-24T03:40:56;6.50;99.90
11772;DHT22;12556;55.748;13.194;2023-04-24T03:43:23;6.50;99.90
11772;DHT22;12556;55.748;13.194;2023-04-24T03:45:50;6.50;99.90
11772;DHT22;12556;55.748;13.194;2023-04-24T03:48:17;6.40;99.90
11772;DHT22;12556;55.748;13.194;2023-04-24T03:50:44;6.50;99.90
11772;DHT22;12556;55.748;13.194;2023-04-24T03:53:11;6.50;99.90
11772;DHT22;12556;55.748;13.194;2023-04-24T03:55:38;6.50;99.90
11772;DHT22;12556;55.748;13.194;2023-04-24T03:58:06;6.50;99.90
11772;DHT22;12556;55.748;13.194;2023-04-24T04:00:33;6.50;99.90
11772;DHT22;12556;55.748;13.194;2023-04-24T04:03:00;6.50;99.90
11772;DHT22;12556;55.748;13.194;2023-04-24T04:05:27;6.60;99.90
11772;DHT22;12556;55.748;13.194;2023-04-24T04:07:54;6.70;99.90
11772;DHT22;12556;55.748;13.194;2023-04-24T04:10:21;6.80;99.90
11772;DHT22;12556;55.748;13.194;2023-04-24T04:12:48;6.90;99.90
11772;DHT22;12556;55.748;13.194;2023-04-24T04:15:17;6.90;99.90
11772;DHT22;12556;55.748;13.194;2023-04-24T04:17:44;7.00;99.90
11772;DHT22;12556;55.748;13.194;2023-04-24T04:20:11;7.10;99.90
11772;DHT22;12556;55.748;13.194;2023-04-24T04:22:39;7.20;99.90
11772;DHT22;12556;55.748;13.194;2023-04-24T04:25:07;7.30;99.90
11772;DHT22;12556;55.748;13.194;2023-04-24T04:27:34;7.30;99.90
11772;DHT22;12556;55.748;13.194;2023-04-24T04:30:02;7.40;99.90
11772;DHT22;12556;55.748;13.194;2023-04-24T04:32:31;7.50;99.90
11772;DHT22;12556;55.748;13.194;2023-04-24T04:35:00;7.50;99.90
11772;DHT22;12556;55.748;13.194;2023-04-24T04:37:28;7.60;99.90
11772;DHT22;12556;55.748;13.194;2023-04-24T04:39:55;7.60;99.90
11772;DHT22;12556;55.748;13.194;2023-04-24T04:42:23;7.80;99.90
11772;DHT22;12556;55.748;13.194;2023-04-24T04:44:50;7.80;99.90
11772;DHT22;12556;55.748;13.194;2023-04-24T04:47:17;7.80;99.90
11772;DHT22;12556;55.748;13.194;2023-04-24T04:49:46;7.90;99.90
11772;DHT22;12556;55.748;13.194;2023-04-24T04:52:13;8.00;99.90
11772;DHT22;12556;55.748;13.194;2023-04-24T04:54:42;8.10;99.90
11772;DHT22;12556;55.748;13.194;2023-04-24T04:57:09;8.00;99.90
11772;DHT22;12556;55.748;13.194;2023-04-24T04:59:37;8.10;99.90
11772;DHT22;12556;55.748;13.194;2023-04-24T05:02:04;8.20;99.90
11772;DHT22;12556;55.748;13.194;2023-04-24T05:04:31;8.20;99.90
11772;DHT22;12556;55.748;13.194;2023-04-24T05:06:59;8.30;99.90
11772;DHT22;12556;55.748;13.194;2023-04-24T05:09:26;8.30;99.90
11772;DHT22;12556;55.748;13.194;2023-04-24T05:11:55;8.40;99.90
11772;DHT22;12556;55.748;13.194;2023-04-24T05:14:22;8.40;99.90
11772;DHT22;12556;55.748;13.194;2023-04-24T05:16:49;8.50;99.90
11772;DHT22;12556;55.748;13.194;2023-04-24T05:19:16;8.60;99.90
11772;DHT22;12556;55.748;13.194;2023-04-24T05:21:43;8.60;99.90
11772;DHT22;12556;55.748;13.194;2023-04-24T05:24:12;8.60;99.90
11772;DHT22;12556;55.748;13.194;2023-04-24T05:26:39;8.60;99.90
11772;DHT22;12556;55.748;13.194;2023-04-24T05:29:06;8.80;99.90
11772;DHT22;12556;55.748;13.194;2023-04-24T05:31:32;8.70;99.90
11772;DHT22;12556;55.748;13.194;2023-04-24T05:33:59;8.80;99.90
11772;DHT22;12556;55.748;13.194;2023-04-24T05:36:26;8.90;99.90
11772;DHT22;12556;55.748;13.194;2023-04-24T05:38:53;9.00;99.90
11772;DHT22;12556;55.748;13.194;2023-04-24T05:41:22;9.20;99.90
11772;DHT22;12556;55.748;13.194;2023-04-24T05:43:49;9.30;99.90
11772;DHT22;12556;55.748;13.194;2023-04-24T05:46:16;9.40;99.90
11772;DHT22;12556;55.748;13.194;2023-04-24T05:48:43;9.50;99.90
11772;DHT22;12556;55.748;13.194;2023-04-24T05:51:10;10.10;99.90
11772;DHT22;12556;55.748;13.194;2023-04-24T05:53:37;9.70;99.90
11772;DHT22;12556;55.748;13.194;2023-04-24T05:56:04;9.70;99.90
11772;DHT22;12556;55.748;13.194;2023-04-24T05:58:32;9.90;99.90
11772;DHT22;12556;55.748;13.194;2023-04-24T06:00:59;9.90;99.90
11772;DHT22;12556;55.748;13.194;2023-04-24T06:03:27;10.00;99.90
11772;DHT22;12556;55.748;13.194;2023-04-24T06:05:54;10.00;99.90
11772;DHT22;12556;55.748;13.194;2023-04-24T06:08:21;10.00;99.90
11772;DHT22;12556;55.748;13.194;2023-04-24T06:10:48;10.10;99.90
11772;DHT22;12556;55.748;13.194;2023-04-24T06:13:15;10.20;99.90
11772;DHT22;12556;55.748;13.194;2023-04-24T06:15:43;10.20;99.90
11772;DHT22;12556;55.748;13.194;2023-04-24T06:18:10;10.20;99.90
11772;DHT22;12556;55.748;13.194;2023-04-24T06:20:38;10.30;99.90
11772;DHT22;12556;55.748;13.194;2023-04-24T06:23:05;10.30;99.90
11772;DHT22;12556;55.748;13.194;2023-04-24T06:25:32;10.30;99.90
11772;DHT22;12556;55.748;13.194;2023-04-24T06:27:59;10.40;99.90
11772;DHT22;12556;55.748;13.194;2023-04-24T06:30:27;10.40;99.90
11772;DHT22;12556;55.748;13.194;2023-04-24T06:32:55;10.50;99.90
11772;DHT22;12556;55.748;13.194;2023-04-24T06:35:22;10.50;99.90
11772;DHT22;12556;55.748;13.194;2023-04-24T06:37:49;10.50;99.90
11772;DHT22;12556;55.748;13.194;2023-04-24T06:40:16;10.90;99.90
11772;DHT22;12556;55.748;13.194;2023-04-24T06:42:44;10.50;99.90
11772;DHT22;12556;55.748;13.194;2023-04-24T06:45:11;10.60;99.90
11772;DHT22;12556;55.748;13.194;2023-04-24T06:47:38;10.70;99.90
11772;DHT22;12556;55.748;13.194;2023-04-24T06:50:07;10.70;99.90
11772;DHT22;12556;55.748;13.194;2023-04-24T06:52:34;10.80;99.90
11772;DHT22;12556;55.748;13.194;2023-04-24T06:55:01;10.80;99.90
11772;DHT22;12556;55.748;13.194;2023-04-24T06:57:29;10.90;99.90
11772;DHT22;12556;55.748;13.194;2023-04-24T06:59:56;10.90;99.90
11772;DHT22;12556;55.748;13.194;2023-04-24T07:02:22;11.00;99.90
11772;DHT22;12556;55.748;13.194;2023-04-24T07:04:49;11.10;99.90
11772;DHT22;12556;55.748;13.194;2023-04-24T07:07:18;11.30;99.90
11772;DHT22;12556;55.748;13.194;2023-04-24T07:09:45;11.20;99.90
11772;DHT22;12556;55.748;13.194;2023-04-24T07:12:12;11.30;99.90
11772;DHT22;12556;55.748;13.194;2023-04-24T07:14:39;11.30;99.90
11772;DHT22;12556;55.748;13.194;2023-04-24T07:17:06;11.40;99.90
11772;DHT22;12556;55.748;13.194;2023-04-24T07:19:34;11.50;99.90
11772;DHT22;12556;55.748;13.194;2023-04-24T07:22:01;11.80;99.90
11772;DHT22;12556;55.748;13.194;2023-04-24T07:24:30;11.60;99.90
11772;DHT22;12556;55.748;13.194;2023-04-24T07:26:58;11.60;99.90
11772;DHT22;12556;55.748;13.194;2023-04-24T07:29:24;11.70;99.90
11772;DHT22;12556;55.748;13.194;2023-04-24T07:31:52;11.80;99.90
11772;DHT22;12556;55.748;13.194;2023-04-24T07:34:19;12.00;99.90
11772;DHT22;12556;55.748;13.194;2023-04-24T07:36:46;12.00;99.90
11772;DHT22;12556;55.748;13.194;2023-04-24T07:39:13;12.10;99.90
11772;DHT22;12556;55.748;13.194;2023-04-24T07:41:42;12.20;99.90
11772;DHT22;12556;55.748;13.194;2023-04-24T07:44:09;12.30;99.90
11772;DHT22;12556;55.748;13.194;2023-04-24T07:46:36;12.30;99.90
11772;DHT22;12556;55.748;13.194;2023-04-24T07:49:04;12.30;99.90
11772;DHT22;12556;55.748;13.194;2023-04-24T07:51:31;12.30;99.90
11772;DHT22;12556;55.748;13.194;2023-04-24T07:53:59;12.40;99.90
11772;DHT22;12556;55.748;13.194;2023-04-24T07:56:26;12.50;99.90
11772;DHT22;12556;55.748;13.194;2023-04-24T07:58:54;12.50;99.90
11772;DHT22;12556;55.748;13.194;2023-04-24T08:01:21;12.70;99.90
11772;DHT22;12556;55.748;13.194;2023-04-24T08:03:48;12.60;99.90
11772;DHT22;12556;55.748;13.194;2023-04-24T08:06:14;12.70;99.90
11772;DHT22;12556;55.748;13.194;2023-04-24T08:08:41;12.70;99.90
11772;DHT22;12556;55.748;13.194;2023-04-24T08:11:08;12.70;99.90
11772;DHT22;12556;55.748;13.194;2023-04-24T08:13:35;12.60;99.90
11772;DHT22;12556;55.748;13.194;2023-04-24T08:16:04;12.50;99.90
11772;DHT22;12556;55.748;13.194;2023-04-24T08:18:31;12.30;99.90
11772;DHT22;12556;55.748;13.194;2023-04-24T08:20:57;12.20;99.90
11772;DHT22;12556;55.748;13.194;2023-04-24T08:23:26;12.10;99.90
11772;DHT22;12556;55.748;13.194;2023-04-24T08:25:54;12.00;99.90
11772;DHT22;12556;55.748;13.194;2023-04-24T08:28:21;12.30;99.90
11772;DHT22;12556;55.748;13.194;2023-04-24T08:30:48;12.10;99.90
11772;DHT22;12556;55.748;13.194;2023-04-24T08:33:21;11.80;99.90
11772;DHT22;12556;55.748;13.194;2023-04-24T08:35:48;11.80;99.90
11772;DHT22;12556;55.748;13.194;2023-04-24T08:38:15;11.80;99.90
11772;DHT22;12556;55.748;13.194;2023-04-24T08:40:42;11.70;99.90
11772;DHT22;12556;55.748;13.194;2023-04-24T08:43:12;11.70;99.90
11772;DHT22;12556;55.748;13.194;2023-04-24T08:45:40;11.70;99.90
11772;DHT22;12556;55.748;13.194;2023-04-24T08:48:07;11.70;99.90
11772;DHT22;12556;55.748;13.194;2023-04-24T08:50:36;11.70;99.90
11772;DHT22;12556;55.748;13.194;2023-04-24T08:53:04;11.70;99.90
11772;DHT22;12556;55.748;13.194;2023-04-24T08:55:32;11.70;99.90
11772;DHT22;12556;55.748;13.194;2023-04-24T08:58:01;11.60;99.90
11772;DHT22;12556;55.748;13.194;2023-04-24T09:00:28;12.00;99.90
11772;DHT22;12556;55.748;13.194;2023-04-24T09:02:56;11.70;99.90
11772;DHT22;12556;55.748;13.194;2023-04-24T09:05:23;11.70;99.90
11772;DHT22;12556;55.748;13.194;2023-04-24T09:07:54;11.70;99.90
11772;DHT22;12556;55.748;13.194;2023-04-24T09:10:22;11.90;99.90
11772;DHT22;12556;55.748;13.194;2023-04-24T09:12:50;11.80;99.90
11772;DHT22;12556;55.748;13.194;2023-04-24T09:15:17;12.00;99.90
11772;DHT22;12556;55.748;13.194;2023-04-24T09:17:46;12.00;99.90
11772;DHT22;12556;55.748;13.194;2023-04-24T09:20:13;12.10;99.90
11772;DHT22;12556;55.748;13.194;2023-04-24T09:22:41;12.20;99.90
11772;DHT22;12556;55.748;13.194;2023-04-24T09:25:10;12.30;99.90
11772;DHT22;12556;55.748;13.194;2023-04-24T09:27:41;12.30;99.90
11772;DHT22;12556;55.748;13.194;2023-04-24T09:30:10;12.60;99.90
11772;DHT22;12556;55.748;13.194;2023-04-24T09:32:37;12.50;99.90
11772;DHT22;12556;55.748;13.194;2023-04-24T09:35:10;12.50;99.90
11772;DHT22;12556;55.748;13.194;2023-04-24T09:37:38;12.50;99.90
11772;DHT22;12556;55.748;13.194;2023-04-24T09:40:11;12.50;99.90
11772;DHT22;12556;55.748;13.194;2023-04-24T09:42:39;12.50;99.90
11772;DHT22;12556;55.748;13.194;2023-04-24T09:45:09;12.40;99.90
11772;DHT22;12556;55.748;13.194;2023-04-24T09:47:37;12.60;99.90
11772;DHT22;12556;55.748;13.194;2023-04-24T09:50:15;12.60;99.90
11772;DHT22;12556;55.748;13.194;2023-04-24T09:52:43;12.60;99.90
11772;DHT22;12556;55.748;13.194;2023-04-24T09:55:16;12.90;99.90
11772;DHT22;12556;55.748;13.194;2023-04-24T09:57:50;12.70;99.90
11772;DHT22;12556;55.748;13.194;2023-04-24T10:00:24;12.70;99.90
11772;DHT22;12556;55.748;13.194;2023-04-24T10:02:56;12.70;99.90
11772;DHT22;12556;55.748;13.194;2023-04-24T10:05:24;12.70;99.90
11772;DHT22;12556;55.748;13.194;2023-04-24T10:07:54;12.80;99.90
11772;DHT22;12556;55.748;13.194;2023-04-24T10:10:24;12.80;99.90
11772;DHT22;12556;55.748;13.194;2023-04-24T10:12:51;12.90;99.90
11772;DHT22;12556;55.748;13.194;2023-04-24T10:15:20;13.00;99.90
11772;DHT22;12556;55.748;13.194;2023-04-24T10:17:48;12.70;99.90
11772;DHT22;12556;55.748;13.194;2023-04-24T10:20:21;12.70;99.90
11772;DHT22;12556;55.748;13.194;2023-04-24T10:22:50;12.70;99.90
11772;DHT22;12556;55.748;13.194;2023-04-24T10:25:18;12.70;99.90
11772;DHT22;12556;55.748;13.194;2023-04-24T10:27:49;12.70;99.90
11772;DHT22;12556;55.748;13.194;2023-04-24T10:30:16;12.70;99.90
11772;DHT22;12556;55.748;13.194;2023-04-24T10:32:43;12.70;99.90
11772;DHT22;12556;55.748;13.194;2023-04-24T10:35:12;12.70;99.90
11772;DHT22;12556;55.748;13.194;2023-04-24T10:37:42;12.90;99.90
11772;DHT22;12556;55.748;13.194;2023-04-24T10:40:10;12.80;99.90
11772;DHT22;12556;55.748;13.194;2023-04-24T10:42:40;13.00;99.90
11772;DHT22;12556;55.748;13.194;2023-04-24T10:45:17;12.90;99.90
11772;DHT22;12556;55.748;13.194;2023-04-24T10:47:56;13.00;99.90
11772;DHT22;12556;55.748;13.194;2023-04-24T10:50:25;13.20;99.90
11772;DHT22;12556;55.748;13.194;2023-04-24T10:52:52;13.20;99.90
11772;DHT22;12556;55.748;13.194;2023-04-24T10:55:41;13.20;99.90
11772;DHT22;12556;55.748;13.194;2023-04-24T10:58:08;13.30;99.90
11772;DHT22;12556;55.748;13.194;2023-04-24T11:00:38;13.30;99.90
11772;DHT22;12556;55.748;13.194;2023-04-24T11:03:07;13.40;99.90
11772;DHT22;12556;55.748;13.194;2023-04-24T11:05:52;13.50;99.90
11772;DHT22;12556;55.748;13.194;2023-04-24T11:08:31;14.00;99.90
11772;DHT22;12556;55.748;13.194;2023-04-24T11:11:03;13.80;99.90
11772;DHT22;12556;55.748;13.194;2023-04-24T11:14:06;14.00;99.90
11772;DHT22;12556;55.748;13.194;2023-04-24T11:16:40;14.30;99.90
11772;DHT22;12556;55.748;13.194;2023-04-24T11:19:17;14.60;99.90
11772;DHT22;12556;55.748;13.194;2023-04-24T11:21:46;14.80;99.90
11772;DHT22;12556;55.748;13.194;2023-04-24T11:24:38;15.30;99.90
11772;DHT22;12556;55.748;13.194;2023-04-24T11:27:07;15.60;99.90
11772;DHT22;12556;55.748;13.194;2023-04-24T11:29:41;15.70;99.90
11772;DHT22;12556;55.748;13.194;2023-04-24T11:32:26;16.00;99.90
11772;DHT22;12556;55.748;13.194;2023-04-24T11:34:54;16.20;99.90
11772;DHT22;12556;55.748;13.194;2023-04-24T11:37:22;16.50;99.90
11772;DHT22;12556;55.748;13.194;2023-04-24T11:39:51;16.90;99.90
11772;DHT22;12556;55.748;13.194;2023-04-24T11:42:20;17.00;99.90
11772;DHT22;12556;55.748;13.194;2023-04-24T11:44:48;17.20;99.90
11772;DHT22;12556;55.748;13.194;2023-04-24T11:47:17;17.30;99.90
11772;DHT22;12556;55.748;13.194;2023-04-24T11:49:44;17.50;99.90
11772;DHT22;12556;55.748;13.194;2023-04-24T11:52:15;17.70;99.90
11772;DHT22;12556;55.748;13.194;2023-04-24T11:54:48;17.70;99.90
11772;DHT22;12556;55.748;13.194;2023-04-24T11:57:16;17.80;99.90
11772;DHT22;12556;55.748;13.194;2023-04-24T11:59:43;17.90;99.90
11772;DHT22;12556;55.748;13.194;2023-04-24T12:02:20;18.10;99.90
11772;DHT22;12556;55.748;13.194;2023-04-24T12:04:47;18.30;99.90
11772;DHT22;12556;55.748;13.194;2023-04-24T12:07:14;18.40;99.90
11772;DHT22;12556;55.748;13.194;2023-04-24T12:09:41;18.30;99.90
11772;DHT22;12556;55.748;13.194;2023-04-24T12:12:10;18.10;99.90
11772;DHT22;12556;55.748;13.194;2023-04-24T12:14:43;18.40;99.90
11772;DHT22;12556;55.748;13.194;2023-04-24T12:17:10;18.70;99.90
11772;DHT22;12556;55.748;13.194;2023-04-24T12:19:44;18.70;99.90
11772;DHT22;12556;55.748;13.194;2023-04-24T12:22:11;18.90;99.90
11772;DHT22;12556;55.748;13.194;2023-04-24T12:24:56;19.20;99.90
11772;DHT22;12556;55.748;13.194;2023-04-24T12:27:23;19.30;99.90
11772;DHT22;12556;55.748;13.194;2023-04-24T12:29:53;19.30;99.90
11772;DHT22;12556;55.748;13.194;2023-04-24T12:32:21;19.30;99.90
11772;DHT22;12556;55.748;13.194;2023-04-24T12:34:51;19.20;99.90
11772;DHT22;12556;55.748;13.194;2023-04-24T12:37:18;19.00;99.90
11772;DHT22;12556;55.748;13.194;2023-04-24T12:39:58;18.90;99.90
11772;DHT22;12556;55.748;13.194;2023-04-24T12:42:26;18.70;99.90
11772;DHT22;12556;55.748;13.194;2023-04-24T12:44:56;18.60;99.90
11772;DHT22;12556;55.748;13.194;2023-04-24T12:47:24;18.60;99.90
11772;DHT22;12556;55.748;13.194;2023-04-24T12:49:52;18.50;99.90
11772;DHT22;12556;55.748;13.194;2023-04-24T12:52:21;18.50;99.90
11772;DHT22;12556;55.748;13.194;2023-04-24T12:54:49;18.40;99.90
11772;DHT22;12556;55.748;13.194;2023-04-24T12:57:16;18.20;99.90
11772;DHT22;12556;55.748;13.194;2023-04-24T12:59:43;18.10;99.90
11772;DHT22;12556;55.748;13.194;2023-04-24T13:02:10;17.90;99.90
11772;DHT22;12556;55.748;13.194;2023-04-24T13:04:37;17.90;99.90
11772;DHT22;12556;55.748;13.194;2023-04-24T13:07:06;17.90;99.90
11772;DHT22;12556;55.748;13.194;2023-04-24T13:09:34;17.80;99.90
11772;DHT22;12556;55.748;13.194;2023-04-24T13:12:01;17.60;99.90
11772;DHT22;12556;55.748;13.194;2023-04-24T13:14:28;17.60;99.90
11772;DHT22;12556;55.748;13.194;2023-04-24T13:16:55;17.60;99.90
11772;DHT22;12556;55.748;13.194;2023-04-24T13:19:24;17.60;99.90
11772;DHT22;12556;55.748;13.194;2023-04-24T13:21:50;17.80;99.90
11772;DHT22;12556;55.748;13.194;2023-04-24T13:24:19;17.70;99.90
11772;DHT22;12556;55.748;13.194;2023-04-24T13:26:46;17.70;99.90
11772;DHT22;12556;55.748;13.194;2023-04-24T13:29:13;17.90;99.90
11772;DHT22;12556;55.748;13.194;2023-04-24T13:31:40;17.90;99.90
11772;DHT22;12556;55.748;13.194;2023-04-24T13:34:07;17.80;99.90
11772;DHT22;12556;55.748;13.194;2023-04-24T13:36:34;17.70;99.90
11772;DHT22;12556;55.748;13.194;2023-04-24T13:39:01;17.60;99.90
11772;DHT22;12556;55.748;13.194;2023-04-24T13:41:30;17.50;99.90
11772;DHT22;12556;55.748;13.194;2023-04-24T13:43:57;17.40;99.90
11772;DHT22;12556;55.748;13.194;2023-04-24T13:46:24;17.40;99.90
11772;DHT22;12556;55.748;13.194;2023-04-24T13:48:51;17.30;99.90
11772;DHT22;12556;55.748;13.194;2023-04-24T13:51:18;17.40;99.90
11772;DHT22;12556;55.748;13.194;2023-04-24T13:53:45;17.40;99.80
11772;DHT22;12556;55.748;13.194;2023-04-24T13:56:11;17.50;99.60
11772;DHT22;12556;55.748;13.194;2023-04-24T13:58:41;17.60;99.40
11772;DHT22;12556;55.748;13.194;2023-04-24T14:01:08;17.90;99.20
11772;DHT22;12556;55.748;13.194;2023-04-24T14:03:37;18.00;98.80
11772;DHT22;12556;55.748;13.194;2023-04-24T14:06:04;18.10;98.60
11772;DHT22;12556;55.748;13.194;2023-04-24T14:08:32;18.10;98.50
11772;DHT22;12556;55.748;13.194;2023-04-24T14:10:59;18.10;98.10
11772;DHT22;12556;55.748;13.194;2023-04-24T14:13:26;18.00;97.80
11772;DHT22;12556;55.748;13.194;2023-04-24T14:15:54;18.00;97.40
11772;DHT22;12556;55.748;13.194;2023-04-24T14:18:21;18.00;97.30
11772;DHT22;12556;55.748;13.194;2023-04-24T14:20:48;18.00;97.50
11772;DHT22;12556;55.748;13.194;2023-04-24T14:23:16;18.00;97.30
11772;DHT22;12556;55.748;13.194;2023-04-24T14:25:42;18.00;97.10
11772;DHT22;12556;55.748;13.194;2023-04-24T14:28:10;18.10;97.30
11772;DHT22;12556;55.748;13.194;2023-04-24T14:30:37;17.80;97.40
11772;DHT22;12556;55.748;13.194;2023-04-24T14:33:07;17.90;97.30
11772;DHT22;12556;55.748;13.194;2023-04-24T14:35:34;17.90;97.30
11772;DHT22;12556;55.748;13.194;2023-04-24T14:38:01;18.00;97.20
11772;DHT22;12556;55.748;13.194;2023-04-24T14:40:28;17.90;97.00
11772;DHT22;12556;55.748;13.194;2023-04-24T14:42:55;17.80;97.10
11772;DHT22;12556;55.748;13.194;2023-04-24T14:45:23;17.70;96.90
11772;DHT22;12556;55.748;13.194;2023-04-24T14:47:50;17.70;97.00
11772;DHT22;12556;55.748;13.194;2023-04-24T14:50:19;17.90;97.10
11772;DHT22;12556;55.748;13.194;2023-04-24T14:52:45;18.00;96.90
11772;DHT22;12556;55.748;13.194;2023-04-24T14:55:13;18.10;96.70
11772;DHT22;12556;55.748;13.194;2023-04-24T14:57:40;18.10;96.20
11772;DHT22;12556;55.748;13.194;2023-04-24T15:00:08;18.10;95.80
11772;DHT22;12556;55.748;13.194;2023-04-24T15:02:35;18.00;95.80
11772;DHT22;12556;55.748;13.194;2023-04-24T15:05:06;17.90;95.70
11772;DHT22;12556;55.748;13.194;2023-04-24T15:07:35;17.90;95.80
11772;DHT22;12556;55.748;13.194;2023-04-24T15:10:02;17.90;95.70
11772;DHT22;12556;55.748;13.194;2023-04-24T15:12:29;17.90;95.90
11772;DHT22;12556;55.748;13.194;2023-04-24T15:14:57;17.80;95.80
11772;DHT22;12556;55.748;13.194;2023-04-24T15:17:24;17.80;95.70
11772;DHT22;12556;55.748;13.194;2023-04-24T15:19:52;17.70;95.60
11772;DHT22;12556;55.748;13.194;2023-04-24T15:22:18;17.60;95.60
11772;DHT22;12556;55.748;13.194;2023-04-24T15:24:47;17.50;95.70
11772;DHT22;12556;55.748;13.194;2023-04-24T15:27:14;17.40;95.70
11772;DHT22;12556;55.748;13.194;2023-04-24T15:29:41;17.40;95.70